Time;durP1;ratioP1;P1;durP2;ratioP2;P2;SDS_P1;SDS_P2;PMS_P1;PMS_P2;Temp;Humidity;BMP_temperature;BMP_pressure;BME280_temperature;BME280_humidity;BME280_pressure;Samples;Min_cycle;Max_cycle;Signal;HPM_P1;HPM_P2
2021/11/16 00:01:24;;;;;;;92.30;29.65;;;;;;;;;;5072126;28;20135;-63
2021/11/16 00:03:51;;;;;;;88.33;28.90;;;;;;;;;;5071981;28;20056;-63
2021/11/16 00:06:19;;;;;;;86.82;29.35;;;;;;;;;;5071727;28;20630;-63
2021/11/16 00:08:46;;;;;;;96.85;30.90;;;;;;;;;;5072141;28;20059;-62
2021/11/16 00:11:13;;;;;;;102.00;31.60;;;;;;;;;;5072248;28;20050;-63
2021/11/16 00:13:41;;;;;;;86.35;29.95;;;;;;;;;;5072312;28;20055;-63
2021/11/16 00:16:08;;;;;;;89.13;31.35;;;;;;;;;;5071876;28;20048;-63
2021/11/16 00:18:36;;;;;;;89.35;31.33;;;;;;;;;;5071878;28;20084;-64
2021/11/16 00:21:06;;;;;;;80.82;27.58;;;;;;;;;;5071965;28;20554;-63
2021/11/16 00:23:37;;;;;;;88.40;28.73;;;;;;;;;;5072330;28;20048;-63
2021/11/16 00:26:06;;;;;;;82.75;29.40;;;;;;;;;;5071752;28;20052;-63
2021/11/16 00:28:33;;;;;;;77.90;27.30;;;;;;;;;;5071846;28;20140;-63
2021/11/16 00:31:03;;;;;;;79.45;28.95;;;;;;;;;;5071973;28;20107;-64
2021/11/16 00:33:31;;;;;;;86.53;27.17;;;;;;;;;;5071676;28;20044;-64
2021/11/16 00:35:58;;;;;;;85.57;27.85;;;;;;;;;;5071777;28;20478;-64
2021/11/16 00:38:27;;;;;;;70.03;26.33;;;;;;;;;;5071869;28;20044;-64
2021/11/16 00:40:54;;;;;;;81.55;27.27;;;;;;;;;;5071645;28;20135;-63
2021/11/16 00:43:22;;;;;;;86.47;29.35;;;;;;;;;;5071982;28;20403;-64
2021/11/16 00:45:49;;;;;;;73.88;24.23;;;;;;;;;;5071792;28;20416;-64
2021/11/16 00:48:23;;;;;;;74.13;27.58;;;;;;;;;;5071845;28;20541;-63
2021/11/16 00:50:55;;;;;;;72.47;26.20;;;;;;;;;;5071923;28;20080;-64
2021/11/16 00:53:24;;;;;;;74.47;26.02;;;;;;;;;;5071702;28;20072;-64
2021/11/16 00:55:52;;;;;;;71.82;26.02;;;;;;;;;;5071340;28;20144;-64
2021/11/16 00:58:19;;;;;;;76.50;26.42;;;;;;;;;;5071449;28;20102;-64
2021/11/16 01:00:46;;;;;;;86.30;30.42;;;;;;;;;;5071295;28;20059;-64
2021/11/16 01:03:16;;;;;;;80.38;28.85;;;;;;;;;;5071686;28;20052;-64
2021/11/16 01:05:46;;;;;;;99.03;31.05;;;;;;;;;;5071228;28;20059;-64
2021/11/16 01:08:13;;;;;;;93.78;30.80;;;;;;;;;;5071426;28;20546;-65
2021/11/16 01:10:42;;;;;;;90.40;30.95;;;;;;;;;;5071398;28;20049;-64
2021/11/16 01:13:10;;;;;;;85.18;30.65;;;;;;;;;;5075300;28;20050;-64
2021/11/16 01:15:40;;;;;;;92.45;31.38;;;;;;;;;;5075157;28;20562;-64
2021/11/16 01:18:08;;;;;;;96.10;30.70;;;;;;;;;;5075453;28;20473;-64
2021/11/16 01:20:36;;;;;;;93.18;30.88;;;;;;;;;;5075011;28;20058;-63
2021/11/16 01:23:07;;;;;;;92.13;31.77;;;;;;;;;;5075001;28;20058;-64
2021/11/16 01:25:37;;;;;;;83.88;28.83;;;;;;;;;;5074772;28;20084;-64
2021/11/16 01:28:08;;;;;;;79.72;26.63;;;;;;;;;;5075305;28;20139;-64
2021/11/16 01:30:36;;;;;;;93.88;29.27;;;;;;;;;;5075153;28;20044;-64
2021/11/16 01:33:05;;;;;;;101.88;33.25;;;;;;;;;;5074825;28;20052;-64
2021/11/16 01:35:35;;;;;;;98.00;30.10;;;;;;;;;;5074665;28;20253;-64
2021/11/16 01:38:02;;;;;;;106.97;33.03;;;;;;;;;;5075271;28;20137;-64
2021/11/16 01:40:31;;;;;;;99.95;30.70;;;;;;;;;;5074609;28;20052;-64
2021/11/16 01:42:59;;;;;;;91.32;28.88;;;;;;;;;;5074901;28;20105;-64
2021/11/16 01:45:27;;;;;;;95.57;31.75;;;;;;;;;;5074589;28;20091;-64
2021/11/16 01:47:55;;;;;;;95.10;29.77;;;;;;;;;;5074694;28;20498;-64
2021/11/16 01:50:24;;;;;;;99.57;30.50;;;;;;;;;;5074503;28;20514;-64
2021/11/16 01:52:52;;;;;;;89.60;28.80;;;;;;;;;;5074438;28;20113;-64
2021/11/16 01:55:24;;;;;;;98.72;33.17;;;;;;;;;;5074201;28;20054;-64
2021/11/16 01:57:54;;;;;;;110.78;32.50;;;;;;;;;;5074439;28;20052;-64
2021/11/16 02:00:25;;;;;;;92.38;29.85;;;;;;;;;;5074548;28;20059;-64
2021/11/16 02:02:52;;;;;;;97.75;33.90;;;;;;;;;;5074316;28;20062;-64
2021/11/16 02:05:19;;;;;;;96.47;31.55;;;;;;;;;;5073992;28;20056;-64
2021/11/16 02:07:48;;;;;;;101.40;30.75;;;;;;;;;;5074280;28;20413;-64
2021/11/16 02:10:17;;;;;;;92.43;29.45;;;;;;;;;;5074559;28;20136;-64
2021/11/16 02:12:44;;;;;;;100.75;31.38;;;;;;;;;;5074187;28;20505;-64
2021/11/16 02:15:12;;;;;;;100.82;30.13;;;;;;;;;;5073794;28;20052;-64
2021/11/16 02:17:39;;;;;;;103.15;30.23;;;;;;;;;;5074048;28;20053;-64
2021/11/16 02:20:08;;;;;;;93.43;27.58;;;;;;;;;;5074151;28;20059;-65
2021/11/16 02:22:37;;;;;;;98.80;32.70;;;;;;;;;;5073970;28;20056;-64
2021/11/16 02:25:05;;;;;;;95.13;30.67;;;;;;;;;;5074048;28;20135;-64
2021/11/16 02:27:32;;;;;;;97.68;29.42;;;;;;;;;;5074006;28;20055;-63
2021/11/16 02:29:59;;;;;;;91.28;29.55;;;;;;;;;;5073712;28;20055;-63
2021/11/16 02:32:26;;;;;;;109.63;32.13;;;;;;;;;;5073885;28;20052;-63
2021/11/16 02:34:53;;;;;;;99.68;30.30;;;;;;;;;;5073764;28;20057;-63
2021/11/16 02:37:20;;;;;;;103.97;33.40;;;;;;;;;;5073689;28;20441;-63
2021/11/16 02:39:49;;;;;;;105.55;30.75;;;;;;;;;;5073487;28;20054;-63
2021/11/16 02:42:20;;;;;;;98.47;31.38;;;;;;;;;;5073516;28;20053;-64
2021/11/16 02:44:47;;;;;;;104.03;30.85;;;;;;;;;;5073171;28;20052;-63
2021/11/16 02:47:14;;;;;;;102.90;31.75;;;;;;;;;;5073684;28;20387;-64
2021/11/16 02:49:42;;;;;;;110.82;29.83;;;;;;;;;;5073254;28;20048;-64
2021/11/16 02:52:12;;;;;;;107.90;32.03;;;;;;;;;;5073292;28;20139;-63
2021/11/16 02:54:39;;;;;;;108.05;31.55;;;;;;;;;;5072929;28;20048;-64
2021/11/16 02:57:09;;;;;;;103.72;33.13;;;;;;;;;;5073148;28;20095;-63
2021/11/16 02:59:36;;;;;;;106.03;32.33;;;;;;;;;;5073389;28;20498;-63
2021/11/16 03:02:04;;;;;;;125.20;34.70;;;;;;;;;;5073133;28;20044;-64
2021/11/16 03:04:33;;;;;;;113.97;32.97;;;;;;;;;;5073171;28;20497;-64
2021/11/16 03:07:04;;;;;;;116.70;32.92;;;;;;;;;;5073329;28;20143;-64
2021/11/16 03:09:33;;;;;;;121.40;35.90;;;;;;;;;;5072803;28;20083;-61
2021/11/16 03:12:01;;;;;;;110.25;31.88;;;;;;;;;;5073254;28;20129;-63
2021/11/16 03:14:31;;;;;;;109.93;33.17;;;;;;;;;;5072711;28;20048;-64
2021/11/16 03:16:58;;;;;;;114.32;34.55;;;;;;;;;;5072883;28;20052;-64
2021/11/16 03:19:25;;;;;;;106.43;34.10;;;;;;;;;;5073030;28;20048;-64
2021/11/16 03:21:56;;;;;;;103.60;31.17;;;;;;;;;;5072765;28;20474;-64
2021/11/16 03:24:24;;;;;;;;;;;;;;;;;;5073493;28;20135;-64
2021/11/16 03:26:51;;;;;;;108.47;31.65;;;;;;;;;;5072890;28;20029;-65
2021/11/16 03:29:23;;;;;;;100.75;32.58;;;;;;;;;;5073123;28;20106;-64
2021/11/16 03:31:52;;;;;;;96.07;31.35;;;;;;;;;;5072723;28;20062;-65
2021/11/16 03:34:20;;;;;;;103.80;29.50;;;;;;;;;;5072254;28;20154;-65
2021/11/16 03:36:47;;;;;;;114.05;33.25;;;;;;;;;;5072493;28;20066;-64
2021/11/16 03:39:14;;;;;;;106.93;33.83;;;;;;;;;;5072558;28;20083;-64
2021/11/16 03:41:42;;;;;;;99.60;30.33;;;;;;;;;;5078389;22;20052;-82
2021/11/16 03:44:09;;;;;;;97.20;30.67;;;;;;;;;;5055496;28;20067;-85
2021/11/16 03:46:36;;;;;;;117.60;31.67;;;;;;;;;;5055536;28;20045;-82
2021/11/16 03:49:06;;;;;;;100.53;30.80;;;;;;;;;;5055649;28;20056;-82
2021/11/16 03:51:33;;;;;;;107.57;30.25;;;;;;;;;;5056516;28;20143;-82
2021/11/16 03:53:59;;;;;;;106.70;32.55;;;;;;;;;;5055477;28;20384;-83
2021/11/16 03:56:26;;;;;;;103.13;33.13;;;;;;;;;;5056316;28;20045;-82
2021/11/16 03:58:53;;;;;;;109.88;31.80;;;;;;;;;;5057155;28;20048;-83
2021/11/16 04:01:21;;;;;;;114.25;33.97;;;;;;;;;;5057318;28;20052;-81
2021/11/16 04:03:49;;;;;;;108.70;31.67;;;;;;;;;;5056973;28;20666;-83
2021/11/16 04:06:19;;;;;;;112.20;32.80;;;;;;;;;;5057468;28;20065;-83
2021/11/16 04:08:46;;;;;;;101.80;31.77;;;;;;;;;;5065439;28;20049;-83
2021/11/16 04:11:13;;;;;;;98.20;28.50;;;;;;;;;;5068973;28;20045;-82
2021/11/16 04:13:40;;;;;;;105.93;30.45;;;;;;;;;;5071938;28;20068;-83
2021/11/16 04:16:07;;;;;;;111.28;30.65;;;;;;;;;;5072041;28;20041;-82
2021/11/16 04:18:35;;;;;;;109.60;31.83;;;;;;;;;;5063189;28;20063;-83
2021/11/16 04:21:02;;;;;;;105.00;29.52;;;;;;;;;;5056415;28;20056;-82
2021/11/16 04:23:31;;;;;;;104.10;29.27;;;;;;;;;;5057494;28;20053;-82
2021/11/16 04:26:03;;;;;;;99.60;29.23;;;;;;;;;;5056032;28;20080;-83
2021/11/16 04:28:30;;;;;;;103.32;34.22;;;;;;;;;;5061739;28;20053;-85
2021/11/16 04:31:02;;;;;;;100.10;30.60;;;;;;;;;;5076854;28;20093;-86
2021/11/16 04:33:29;;;;;;;100.47;29.98;;;;;;;;;;5073796;28;20056;-83
2021/11/16 04:35:59;;;;;;;94.47;27.20;;;;;;;;;;5071056;28;20072;-82
2021/11/16 04:38:29;;;;;;;94.40;26.30;;;;;;;;;;5063458;28;20049;-81
2021/11/16 04:41:01;;;;;;;86.70;25.87;;;;;;;;;;5056416;28;20056;-82
2021/11/16 04:43:32;;;;;;;86.18;26.00;;;;;;;;;;5056016;28;20064;-82
2021/11/16 04:46:04;;;;;;;101.70;31.40;;;;;;;;;;5056717;28;20112;-84
2021/11/16 04:48:46;;;;;;;83.65;24.73;;;;;;;;;;5061020;28;20436;-84
2021/11/16 04:51:34;;;;;;;96.43;27.83;;;;;;;;;;5060354;28;20056;-84
2021/11/16 04:54:26;;;;;;;86.43;27.65;;;;;;;;;;5059781;28;20045;-81
2021/11/16 04:59:45;;;;;;;83.75;25.42;;;;;;;;;;5058960;28;20071;-83
2021/11/16 05:04:58;;;;;;;79.53;23.25;;;;;;;;;;5058291;28;20434;-82
2021/11/16 05:07:32;;;;;;;76.93;24.42;;;;;;;;;;5059894;28;20063;-81
2021/11/16 05:10:01;;;;;;;71.88;22.27;;;;;;;;;;5060688;28;20397;-81
2021/11/16 05:12:31;;;;;;;71.32;22.80;;;;;;;;;;5058127;28;20053;-83
2021/11/16 05:15:00;;;;;;;68.82;23.15;;;;;;;;;;5057826;28;20040;-82
2021/11/16 05:17:28;;;;;;;66.15;22.08;;;;;;;;;;5058793;28;20488;-81
2021/11/16 05:19:55;;;;;;;63.90;22.20;;;;;;;;;;5059254;28;20049;-82
2021/11/16 05:22:22;;;;;;;72.90;23.30;;;;;;;;;;5059285;28;20051;-82
2021/11/16 05:24:50;;;;;;;78.45;23.77;;;;;;;;;;5059032;28;20515;-81
2021/11/16 05:27:20;;;;;;;70.43;22.83;;;;;;;;;;5064618;28;20056;-83
2021/11/16 05:29:49;;;;;;;79.78;23.95;;;;;;;;;;5062625;28;20049;-83
2021/11/16 05:32:17;;;;;;;70.95;22.05;;;;;;;;;;5061042;28;20079;-83
2021/11/16 05:34:44;;;;;;;66.32;21.52;;;;;;;;;;5068715;28;20068;-81
2021/11/16 05:37:11;;;;;;;80.18;24.30;;;;;;;;;;5071689;28;20049;-83
2021/11/16 05:39:39;;;;;;;70.40;21.52;;;;;;;;;;5061047;28;20120;-84
2021/11/16 05:42:06;;;;;;;70.38;22.55;;;;;;;;;;5060026;28;20454;-82
2021/11/16 05:44:34;;;;;;;70.80;21.30;;;;;;;;;;5058588;28;20053;-83
2021/11/16 05:47:04;;;;;;;64.30;20.83;;;;;;;;;;5059835;28;20510;-82
2021/11/16 05:49:35;;;;;;;75.20;22.83;;;;;;;;;;5060490;28;20041;-82
2021/11/16 05:52:05;;;;;;;63.85;21.58;;;;;;;;;;5059601;28;20060;-82
2021/11/16 05:54:36;;;;;;;63.10;21.30;;;;;;;;;;5059783;28;20136;-84
2021/11/16 05:57:06;;;;;;;64.05;20.60;;;;;;;;;;5059152;28;20432;-83
2021/11/16 05:59:34;;;;;;;68.07;20.17;;;;;;;;;;5060451;28;20270;-84
2021/11/16 06:02:04;;;;;;;60.10;19.40;;;;;;;;;;5061168;28;20045;-84
2021/11/16 06:04:33;;;;;;;58.37;20.17;;;;;;;;;;5061509;28;20051;-85
2021/11/16 06:07:00;;;;;;;63.85;18.98;;;;;;;;;;5062249;28;20061;-84
2021/11/16 06:09:31;;;;;;;58.65;18.80;;;;;;;;;;5061908;28;20059;-85
2021/11/16 06:11:58;;;;;;;;;;;;;;;;;;5062137;28;20052;-85
2021/11/16 06:14:26;;;;;;;56.33;17.52;;;;;;;;;;5063796;28;19979;-85
2021/11/16 06:16:53;;;;;;;54.58;18.42;;;;;;;;;;5067622;28;20041;-85
2021/11/16 06:19:25;;;;;;;53.33;18.35;;;;;;;;;;5071861;28;20040;-85
2021/11/16 06:21:52;;;;;;;50.55;18.55;;;;;;;;;;5072246;28;20084;-84
2021/11/16 06:24:19;;;;;;;52.15;17.63;;;;;;;;;;5070816;28;20049;-84
2021/11/16 06:26:46;;;;;;;54.17;18.35;;;;;;;;;;5068978;28;20052;-85
2021/11/16 06:29:13;;;;;;;46.80;14.98;;;;;;;;;;5070167;28;20499;-85
2021/11/16 06:31:40;;;;;;;46.55;15.50;;;;;;;;;;5064734;28;20136;-85
2021/11/16 06:34:09;;;;;;;48.55;18.67;;;;;;;;;;5062843;28;20132;-84
2021/11/16 06:36:41;;;;;;;49.55;17.50;;;;;;;;;;5061297;28;20045;-85
2021/11/16 06:39:10;;;;;;;49.50;16.27;;;;;;;;;;5061341;28;20092;-85
2021/11/16 06:41:40;;;;;;;45.80;16.05;;;;;;;;;;5060476;28;20045;-85
2021/11/16 06:44:09;;;;;;;47.17;15.17;;;;;;;;;;5059748;28;20106;-85
2021/11/16 06:46:41;;;;;;;45.60;14.68;;;;;;;;;;5058900;28;20314;-85
2021/11/16 06:49:10;;;;;;;43.42;15.27;;;;;;;;;;5062935;28;20059;-84
2021/11/16 06:51:40;;;;;;;47.80;15.52;;;;;;;;;;5061932;28;20052;-85
2021/11/16 06:54:10;;;;;;;49.22;16.08;;;;;;;;;;5061240;28;20045;-85
2021/11/16 06:56:39;;;;;;;41.23;14.90;;;;;;;;;;5067627;28;20063;-85
2021/11/16 06:59:07;;;;;;;42.28;15.60;;;;;;;;;;5069073;28;20049;-84
2021/11/16 07:01:37;;;;;;;40.75;15.05;;;;;;;;;;5070068;28;20029;-85
2021/11/16 07:04:09;;;;;;;37.47;13.40;;;;;;;;;;5078480;28;20036;-84
2021/11/16 07:06:43;;;;;;;39.58;14.02;;;;;;;;;;5072904;28;20075;-85
2021/11/16 07:09:12;;;;;;;37.65;13.52;;;;;;;;;;5060467;28;20060;-85
2021/11/16 07:11:47;;;;;;;37.40;13.60;;;;;;;;;;5058955;28;20056;-85
2021/11/16 07:14:16;;;;;;;40.65;14.00;;;;;;;;;;5059921;28;20113;-85
2021/11/16 07:16:57;;;;;;;33.92;12.18;;;;;;;;;;5059551;28;20041;-85
2021/11/16 07:19:31;;;;;;;38.25;13.95;;;;;;;;;;5061152;28;20045;-84
2021/11/16 07:22:03;;;;;;;40.95;13.45;;;;;;;;;;5062366;28;20049;-85
2021/11/16 07:24:33;;;;;;;37.20;12.95;;;;;;;;;;5059893;28;20161;-84
2021/11/16 07:27:01;;;;;;;33.28;13.05;;;;;;;;;;5060740;28;20423;-85
2021/11/16 07:29:35;;;;;;;33.88;12.25;;;;;;;;;;5059867;28;20048;-85
2021/11/16 07:32:03;;;;;;;37.00;12.77;;;;;;;;;;5061003;28;20053;-84
2021/11/16 07:34:32;;;;;;;34.20;12.90;;;;;;;;;;5063969;28;20049;-84
2021/11/16 07:37:05;;;;;;;30.55;11.57;;;;;;;;;;5062313;28;20052;-84
2021/11/16 07:39:45;;;;;;;35.42;12.52;;;;;;;;;;5059348;28;20056;-84
2021/11/16 07:42:13;;;;;;;38.10;14.25;;;;;;;;;;5059150;28;20045;-84
2021/11/16 07:44:41;;;;;;;31.30;12.90;;;;;;;;;;5059150;28;20079;-84
2021/11/16 07:47:08;;;;;;;40.95;13.45;;;;;;;;;;5059179;28;20095;-84
2021/11/16 07:49:45;;;;;;;34.03;11.80;;;;;;;;;;5059064;28;20048;-84
2021/11/16 07:52:13;;;;;;;28.40;10.57;;;;;;;;;;5058595;28;20057;-84
2021/11/16 07:54:41;;;;;;;28.70;9.88;;;;;;;;;;5058435;28;20084;-86
2021/11/16 07:57:08;;;;;;;27.48;10.55;;;;;;;;;;5060539;28;20041;-83
2021/11/16 07:59:35;;;;;;;34.90;14.98;;;;;;;;;;5061086;28;20045;-83
2021/11/16 08:02:06;;;;;;;30.08;12.00;;;;;;;;;;5060659;28;20108;-85
2021/11/16 08:04:41;;;;;;;27.88;10.10;;;;;;;;;;5061296;28;20053;-85
2021/11/16 08:07:26;;;;;;;25.85;10.05;;;;;;;;;;5059848;28;20056;-84
2021/11/16 08:09:56;;;;;;;27.92;10.68;;;;;;;;;;5058676;28;20538;-85
2021/11/16 08:12:28;;;;;;;28.10;11.17;;;;;;;;;;5066223;28;20068;-84
2021/11/16 08:15:02;;;;;;;35.38;12.77;;;;;;;;;;5073471;28;20294;-84
2021/11/16 08:17:31;;;;;;;29.85;11.82;;;;;;;;;;5073632;28;20049;-84
2021/11/16 08:20:00;;;;;;;31.77;10.43;;;;;;;;;;5069941;28;20053;-85
2021/11/16 08:22:31;;;;;;;29.95;9.98;;;;;;;;;;5063599;28;20458;-86
2021/11/16 08:24:59;;;;;;;34.63;11.93;;;;;;;;;;5061650;28;20055;-84
2021/11/16 08:27:30;;;;;;;25.60;10.05;;;;;;;;;;5061399;28;20048;-84
2021/11/16 08:30:01;;;;;;;29.10;11.68;;;;;;;;;;5062028;28;20066;-85
2021/11/16 08:32:34;;;;;;;30.10;10.68;;;;;;;;;;5062880;28;20451;-84
2021/11/16 08:35:02;;;;;;;28.17;10.85;;;;;;;;;;5072607;28;20049;-83
2021/11/16 08:37:41;;;;;;;25.75;9.80;;;;;;;;;;5074761;28;20053;-85
2021/11/16 08:40:11;;;;;;;24.35;9.75;;;;;;;;;;5073141;28;20039;-84
2021/11/16 08:42:42;;;;;;;25.95;9.45;;;;;;;;;;5070138;28;20076;-81
2021/11/16 08:45:12;;;;;;;27.52;9.77;;;;;;;;;;5067316;28;20056;-81
2021/11/16 08:47:41;;;;;;;24.83;9.80;;;;;;;;;;5068475;28;20049;-84
2021/11/16 08:50:15;;;;;;;24.75;8.77;;;;;;;;;;5068296;28;20060;-83
2021/11/16 08:52:43;;;;;;;27.63;9.93;;;;;;;;;;5067877;28;20052;-81
2021/11/16 08:55:16;;;;;;;27.88;10.43;;;;;;;;;;5067720;28;20051;-82
2021/11/16 08:57:47;;;;;;;30.05;9.15;;;;;;;;;;5067627;28;20114;-83
2021/11/16 09:00:20;;;;;;;27.77;9.77;;;;;;;;;;5065642;28;20053;-85
2021/11/16 09:02:48;;;;;;;26.17;8.18;;;;;;;;;;5066283;28;20025;-83
2021/11/16 09:05:18;;;;;;;21.27;8.60;;;;;;;;;;5068670;28;20096;-83
2021/11/16 09:07:57;;;;;;;25.13;8.70;;;;;;;;;;5070759;28;20049;-82
2021/11/16 09:10:36;;;;;;;22.50;8.25;;;;;;;;;;5072467;28;20049;-84
2021/11/16 09:13:05;;;;;;;23.70;8.30;;;;;;;;;;5070534;28;20049;-83
2021/11/16 09:15:35;;;;;;;22.23;7.93;;;;;;;;;;5070614;28;20047;-81
2021/11/16 09:18:15;;;;;;;20.77;8.13;;;;;;;;;;5068707;28;20059;-84
2021/11/16 09:20:55;;;;;;;27.17;9.07;;;;;;;;;;5068446;28;20055;-84
2021/11/16 09:23:26;;;;;;;25.98;8.63;;;;;;;;;;5066181;28;20052;-85
2021/11/16 09:26:05;;;;;;;18.98;7.53;;;;;;;;;;5065425;28;20056;-85
2021/11/16 09:28:35;;;;;;;24.90;8.27;;;;;;;;;;5065169;28;20073;-85
2021/11/16 09:31:16;;;;;;;28.98;8.90;;;;;;;;;;5062576;28;20396;-84
2021/11/16 09:33:43;;;;;;;;;;;;;;;;;;5065618;28;20059;-84
2021/11/16 09:36:10;;;;;;;26.02;8.63;;;;;;;;;;5067882;28;19927;-84
2021/11/16 09:38:46;;;;;;;33.67;10.77;;;;;;;;;;5078483;28;20029;-84
2021/11/16 09:41:16;;;;;;;26.90;9.50;;;;;;;;;;5093874;22;20127;-60
2021/11/16 09:43:43;;;;;;;26.52;10.23;;;;;;;;;;5055948;28;20088;-61
2021/11/16 09:46:13;;;;;;;22.65;8.07;;;;;;;;;;5055328;28;20132;-59
2021/11/16 09:48:40;;;;;;;25.92;8.95;;;;;;;;;;5055344;28;20056;-61
2021/11/16 09:51:19;;;;;;;27.60;9.50;;;;;;;;;;5055096;28;20049;-60
2021/11/16 09:53:48;;;;;;;30.13;9.98;;;;;;;;;;5055148;28;20049;-61
2021/11/16 09:56:21;;;;;;;26.38;9.48;;;;;;;;;;5054660;28;20060;-62
2021/11/16 09:58:48;;;;;;;22.50;7.75;;;;;;;;;;5054905;28;20123;-61
2021/11/16 10:01:24;;;;;;;19.65;7.65;;;;;;;;;;5055134;28;20052;-60
2021/11/16 10:04:05;;;;;;;18.70;6.80;;;;;;;;;;5054847;28;20497;-59
2021/11/16 10:06:32;;;;;;;20.70;7.45;;;;;;;;;;5054673;28;20051;-62
2021/11/16 10:09:01;;;;;;;23.02;8.27;;;;;;;;;;5054749;28;20466;-61
2021/11/16 10:11:28;;;;;;;33.50;13.88;;;;;;;;;;5054484;28;20056;-60
2021/11/16 10:13:55;;;;;;;28.75;11.02;;;;;;;;;;5054708;28;20382;-60
2021/11/16 10:16:22;;;;;;;27.17;9.73;;;;;;;;;;5054032;28;20060;-59
2021/11/16 10:18:50;;;;;;;24.92;8.90;;;;;;;;;;5054630;28;20059;-60
2021/11/16 10:21:17;;;;;;;25.70;8.85;;;;;;;;;;5054490;28;20049;-60
2021/11/16 10:23:47;;;;;;;29.10;9.27;;;;;;;;;;5055251;28;20536;-61
2021/11/16 10:26:16;;;;;;;23.60;8.25;;;;;;;;;;5054926;28;20056;-61
2021/11/16 10:28:46;;;;;;;25.02;8.02;;;;;;;;;;5054631;28;20073;-60
2021/11/16 10:31:13;;;;;;;24.48;8.05;;;;;;;;;;5054472;28;20118;-63
2021/11/16 10:33:41;;;;;;;23.70;9.00;;;;;;;;;;5054896;28;20048;-60
2021/11/16 10:36:10;;;;;;;23.13;8.68;;;;;;;;;;5054358;28;20561;-61
2021/11/16 10:38:40;;;;;;;23.63;8.02;;;;;;;;;;5054676;28;20489;-60
2021/11/16 10:41:10;;;;;;;22.75;8.13;;;;;;;;;;5054144;28;20490;-59
2021/11/16 10:43:41;;;;;;;22.35;8.02;;;;;;;;;;5053044;28;20055;-60
2021/11/16 10:46:08;;;;;;;22.58;7.70;;;;;;;;;;5053904;28;20051;-62
2021/11/16 10:48:38;;;;;;;22.75;8.98;;;;;;;;;;5053647;28;20063;-61
2021/11/16 10:51:07;;;;;;;19.58;7.47;;;;;;;;;;5053545;28;20048;-62
2021/11/16 10:53:34;;;;;;;20.42;8.02;;;;;;;;;;5053464;28;20057;-63
2021/11/16 10:56:03;;;;;;;18.33;7.05;;;;;;;;;;5052648;28;20084;-64
2021/11/16 10:58:35;;;;;;;21.23;8.93;;;;;;;;;;5053636;28;20045;-62
2021/11/16 11:01:08;;;;;;;20.40;8.85;;;;;;;;;;5053195;28;20136;-63
2021/11/16 11:03:42;;;;;;;18.33;8.20;;;;;;;;;;5052906;28;20115;-62
2021/11/16 11:06:12;;;;;;;19.80;7.82;;;;;;;;;;5053027;28;20092;-61
2021/11/16 11:08:45;;;;;;;18.10;7.63;;;;;;;;;;5053099;28;20417;-62
2021/11/16 11:11:18;;;;;;;20.92;8.15;;;;;;;;;;5053096;28;20053;-61
2021/11/16 11:13:47;;;;;;;23.60;9.05;;;;;;;;;;5052979;28;20524;-62
2021/11/16 11:16:19;;;;;;;22.25;7.60;;;;;;;;;;5052563;28;20139;-62
2021/11/16 11:18:49;;;;;;;26.27;8.32;;;;;;;;;;5052916;28;20049;-63
2021/11/16 11:21:29;;;;;;;25.85;7.97;;;;;;;;;;5052787;28;20060;-64
2021/11/16 11:23:59;;;;;;;22.58;8.00;;;;;;;;;;5053082;28;20474;-62
2021/11/16 11:26:33;;;;;;;25.15;8.65;;;;;;;;;;5052858;28;20060;-61
2021/11/16 11:29:14;;;;;;;26.52;8.68;;;;;;;;;;5052643;28;20060;-62
2021/11/16 11:31:43;;;;;;;24.40;8.82;;;;;;;;;;5052861;28;20057;-62
2021/11/16 11:34:11;;;;;;;18.90;7.78;;;;;;;;;;5052754;28;20045;-62
2021/11/16 11:36:39;;;;;;;22.27;7.60;;;;;;;;;;5052342;28;20393;-63
2021/11/16 11:39:19;;;;;;;24.45;9.25;;;;;;;;;;5052638;28;20386;-63
2021/11/16 11:41:56;;;;;;;22.17;8.32;;;;;;;;;;5052437;28;20053;-63
2021/11/16 11:44:25;;;;;;;27.45;7.63;;;;;;;;;;5052833;28;20064;-62
2021/11/16 11:46:58;;;;;;;24.00;8.95;;;;;;;;;;5052162;28;20149;-62
2021/11/16 11:49:27;;;;;;;25.23;8.90;;;;;;;;;;5052466;28;20059;-62
2021/11/16 11:51:55;;;;;;;23.65;8.27;;;;;;;;;;5052210;28;20049;-60
2021/11/16 11:54:24;;;;;;;26.33;9.63;;;;;;;;;;5052241;28;20472;-62
2021/11/16 11:56:54;;;;;;;25.17;7.78;;;;;;;;;;5051710;28;20068;-62
2021/11/16 11:59:22;;;;;;;27.40;9.40;;;;;;;;;;5052253;28;20144;-62
2021/11/16 12:01:50;;;;;;;22.35;8.32;;;;;;;;;;5052092;28;20088;-63
2021/11/16 12:04:19;;;;;;;23.38;8.15;;;;;;;;;;5051781;28;20053;-62
2021/11/16 12:06:49;;;;;;;21.08;6.88;;;;;;;;;;5051664;28;20048;-61
2021/11/16 12:09:16;;;;;;;17.90;6.80;;;;;;;;;;5052213;28;20398;-63
2021/11/16 12:11:45;;;;;;;22.38;7.95;;;;;;;;;;5051826;28;20049;-62
2021/11/16 12:14:22;;;;;;;22.65;8.18;;;;;;;;;;5051779;28;20102;-61
2021/11/16 12:16:59;;;;;;;26.02;9.52;;;;;;;;;;5051643;28;20053;-61
2021/11/16 12:19:38;;;;;;;26.90;8.60;;;;;;;;;;5052101;28;20406;-60
2021/11/16 12:22:14;;;;;;;23.30;8.35;;;;;;;;;;5051991;28;20049;-60
2021/11/16 12:24:46;;;;;;;27.08;9.23;;;;;;;;;;5051748;28;20049;-63
2021/11/16 12:27:14;;;;;;;25.58;8.68;;;;;;;;;;5051867;28;20049;-61
2021/11/16 12:29:43;;;;;;;29.52;10.02;;;;;;;;;;5051905;28;20048;-60
2021/11/16 12:32:23;;;;;;;29.60;11.85;;;;;;;;;;5051557;28;20152;-63
2021/11/16 12:34:56;;;;;;;28.67;9.13;;;;;;;;;;5051944;28;20071;-59
2021/11/16 12:37:33;;;;;;;26.67;8.65;;;;;;;;;;5052380;28;20482;-61
2021/11/16 12:40:02;;;;;;;25.48;9.48;;;;;;;;;;5051966;28;20052;-60
2021/11/16 12:42:29;;;;;;;31.55;11.63;;;;;;;;;;5051540;28;20490;-61
2021/11/16 12:44:58;;;;;;;26.17;9.05;;;;;;;;;;5051806;28;20049;-60
2021/11/16 12:47:27;;;;;;;27.27;9.98;;;;;;;;;;5051667;28;20053;-61
2021/11/16 12:50:09;;;;;;;26.98;9.10;;;;;;;;;;5051761;28;20049;-60
2021/11/16 12:52:44;;;;;;;31.75;10.50;;;;;;;;;;5051775;28;20165;-62
2021/11/16 12:55:24;;;;;;;28.33;10.32;;;;;;;;;;5051840;28;20497;-62
2021/11/16 12:57:53;;;;;;;31.08;11.57;;;;;;;;;;5051565;28;20081;-62
2021/11/16 13:00:33;;;;;;;28.90;10.93;;;;;;;;;;5051936;28;20474;-59
2021/11/16 13:03:00;;;;;;;28.38;10.25;;;;;;;;;;5051647;28;20045;-61
2021/11/16 13:05:42;;;;;;;31.67;10.65;;;;;;;;;;5051476;28;20053;-60
2021/11/16 13:08:13;;;;;;;28.30;9.98;;;;;;;;;;5054384;28;20110;-63
2021/11/16 13:10:49;;;;;;;31.75;12.38;;;;;;;;;;5055569;28;20045;-59
2021/11/16 13:13:19;;;;;;;30.98;10.90;;;;;;;;;;5055728;28;20167;-61
2021/11/16 13:15:49;;;;;;;36.92;15.00;;;;;;;;;;5055471;28;20045;-61
2021/11/16 13:18:34;;;;;;;36.03;11.30;;;;;;;;;;5055455;28;20475;-61
2021/11/16 13:21:24;;;;;;;31.58;11.05;;;;;;;;;;5055421;28;20627;-57
2021/11/16 13:23:55;;;;;;;34.35;10.90;;;;;;;;;;5055247;28;20102;-60
2021/11/16 13:26:29;;;;;;;27.00;11.00;;;;;;;;;;5055173;28;20053;-59
2021/11/16 13:29:20;;;;;;;28.92;11.15;;;;;;;;;;5055452;28;20132;-60
2021/11/16 13:32:00;;;;;;;32.77;11.17;;;;;;;;;;5055241;28;20049;-60
2021/11/16 13:34:36;;;;;;;27.05;10.13;;;;;;;;;;5055134;28;20278;-63
2021/11/16 13:37:14;;;;;;;32.00;12.20;;;;;;;;;;5054780;28;20049;-62
2021/11/16 13:39:41;;;;;;;32.78;11.43;;;;;;;;;;5055131;28;20067;-60
2021/11/16 13:42:11;;;;;;;32.85;11.75;;;;;;;;;;5054835;28;20111;-63
2021/11/16 13:44:42;;;;;;;31.70;9.70;;;;;;;;;;5054507;28;20059;-62
2021/11/16 13:47:11;;;;;;;;;;;;;;;;;;5055421;28;20073;-61
2021/11/16 13:49:40;;;;;;;31.65;11.32;;;;;;;;;;5055293;28;20350;-59
2021/11/16 13:52:14;;;;;;;24.42;10.00;;;;;;;;;;5054854;28;20128;-61
2021/11/16 13:54:43;;;;;;;32.50;10.65;;;;;;;;;;5054397;28;20124;-62
2021/11/16 13:57:14;;;;;;;26.65;10.02;;;;;;;;;;5054628;28;20076;-61
2021/11/16 13:59:43;;;;;;;33.05;11.80;;;;;;;;;;5054864;28;20461;-59
2021/11/16 14:02:14;;;;;;;29.63;9.93;;;;;;;;;;5054507;28;20045;-61
2021/11/16 14:04:41;;;;;;;;;;;;;;;;;;5054653;28;20056;-60
2021/11/16 14:07:15;;;;;;;32.13;10.55;;;;;;;;;;5054682;28;19921;-60
2021/11/16 14:09:43;;;;;;;29.45;11.57;;;;;;;;;;5054323;28;20086;-60
2021/11/16 14:12:11;;;;;;;32.83;10.68;;;;;;;;;;5054279;28;20057;-60
2021/11/16 14:14:38;;;;;;;41.72;13.52;;;;;;;;;;5053949;28;20498;-60
2021/11/16 14:17:11;;;;;;;26.70;10.30;;;;;;;;;;5054099;28;20051;-63
2021/11/16 14:19:52;;;;;;;29.42;10.00;;;;;;;;;;5054010;28;20136;-63
2021/11/16 14:22:28;;;;;;;;;;;;;;;;;;5055209;28;20147;-58
2021/11/16 14:24:55;;;;;;;27.75;10.25;;;;;;;;;;5054045;28;19920;-61
2021/11/16 14:27:24;;;;;;;21.83;8.07;;;;;;;;;;5054016;28;20048;-61
2021/11/16 14:29:52;;;;;;;25.27;10.55;;;;;;;;;;5054104;28;20132;-61
2021/11/16 14:32:21;;;;;;;23.13;9.27;;;;;;;;;;5054138;28;20088;-61
2021/11/16 14:34:48;;;;;;;26.27;9.20;;;;;;;;;;5053605;28;20087;-61
2021/11/16 14:37:16;;;;;;;25.85;8.38;;;;;;;;;;5053640;28;20049;-62
2021/11/16 14:39:46;;;;;;;28.45;10.02;;;;;;;;;;5053743;28;20052;-61
2021/11/16 14:42:19;;;;;;;25.20;9.13;;;;;;;;;;5053820;28;20502;-63
2021/11/16 14:44:48;;;;;;;26.00;9.02;;;;;;;;;;5053456;28;20056;-61